Terminal Aerodrome Forecast
Issued by NWS Portland, OR

Home | Current Version | Previous Version | Text Only | Print | Product List | Glossary On
Versions: 1 2 3 4 5 6 7 8 9 10 11 12 13 14 15 16 17 18 19 20 21 22 23 24 25 26 27 28 29 30 31 32 33 34 35 36 37 38 39 40 41 42 43 44 45 46 47 48 49 50
000
FTUS46 KPQR 101402 AAB
TAFSLE
TAF AMD
KSLE 101402Z 1014/1112 VRB03KT 1/2SM FG BKN002 OVC070
      TEMPO 1014/1017 2SM BR BKN002 OVC070
     FM101800 VRB03KT 5SM BR SCT002 BKN050 BKN100
     FM102100 18009KT P6SM -RA SCT030 OVC050
     FM110000 20011KT P6SM -RA BKN025 OVC045
     FM110400 20009KT P6SM -SHRA BKN025 BKN050=

USA.gov is the U.S. government's official web portal to all federal, state and local government web resources and services.